Time;durP1;ratioP1;P1;durP2;ratioP2;P2;SDS_P1;SDS_P2;PMS_P1;PMS_P2;Temp;Humidity;BMP_temperature;BMP_pressure;BME280_temperature;BME280_humidity;BME280_pressure;Samples;Min_cycle;Max_cycle;Signal;HPM_P1;HPM_P2
2023/10/20 00:00:55;;;;;;;1.13;0.50;;;16.70;99.90;;;;;;4231228;28;20176;-88
2023/10/20 00:02:56;;;;;;;6.93;0.93;;;17.00;99.90;;;;;;4231170;28;20169;-88
2023/10/20 00:04:57;;;;;;;0.47;0.30;;;16.90;99.90;;;;;;4231205;28;20588;-88
2023/10/20 00:06:59;;;;;;;2.45;0.60;;;16.90;99.90;;;;;;4231036;28;20207;-88
2023/10/20 00:09:01;;;;;;;0.73;0.30;;;17.00;99.90;;;;;;4214446;28;20185;-88
2023/10/20 00:11:06;;;;;;;1.02;0.60;;;16.90;99.90;;;;;;4214349;28;20173;-89
2023/10/20 00:13:07;;;;;;;0.88;0.68;;;16.90;99.90;;;;;;4214240;28;20203;-89
2023/10/20 00:15:14;;;;;;;1.63;0.50;;;16.80;99.90;;;;;;4214412;28;20166;-89
2023/10/20 00:17:15;;;;;;;0.90;0.35;;;16.60;99.90;;;;;;4214439;28;20205;-88
2023/10/20 00:19:17;;;;;;;0.70;0.47;;;16.50;99.90;;;;;;4214581;28;20178;-88
2023/10/20 00:21:18;;;;;;;1.95;0.50;;;16.50;99.90;;;;;;4214382;28;20215;-88
2023/10/20 00:23:19;;;;;;;0.50;0.40;;;16.70;99.90;;;;;;4231094;28;20169;-88
2023/10/20 00:25:20;;;;;;;0.50;0.50;;;16.70;99.90;;;;;;4231131;28;20658;-88
2023/10/20 00:27:20;;;;;;;0.38;0.30;;;17.00;99.90;;;;;;4214445;28;20657;-89
2023/10/20 00:29:22;;;;;;;0.73;0.50;;;16.90;99.90;;;;;;4231082;28;20169;-88
2023/10/20 00:31:24;;;;;;;1.33;0.43;;;16.70;99.90;;;;;;4213936;28;20173;-88
2023/10/20 00:33:24;;;;;;;0.90;0.43;;;16.70;99.90;;;;;;4230918;28;20649;-87
2023/10/20 00:35:25;;;;;;;0.47;0.40;;;16.90;99.90;;;;;;4232088;28;20177;-88
2023/10/20 00:37:26;;;;;;;0.60;0.43;;;17.20;99.90;;;;;;4230827;28;20590;-88
2023/10/20 00:39:27;;;;;;;0.65;0.60;;;17.30;99.90;;;;;;4214066;28;20685;-89
2023/10/20 00:41:27;;;;;;;0.85;0.68;;;16.90;99.90;;;;;;4214095;28;20173;-88
2023/10/20 00:43:36;;;;;;;4.13;0.75;;;16.50;99.90;;;;;;4214144;28;20269;-89
2023/10/20 00:45:40;;;;;;;0.50;0.38;;;16.30;99.90;;;;;;4230752;28;20262;-88
2023/10/20 00:47:44;;;;;;;0.80;0.60;;;16.30;99.90;;;;;;4230808;28;20198;-89
2023/10/20 00:49:48;;;;;;;1.08;0.60;;;16.40;99.90;;;;;;4230778;28;20259;-89
2023/10/20 00:51:50;;;;;;;1.50;0.60;;;16.40;99.90;;;;;;4230957;28;20207;-89
2023/10/20 00:53:51;;;;;;;0.85;0.65;;;16.30;99.90;;;;;;4231157;28;20629;-90
2023/10/20 00:55:52;;;;;;;1.58;0.60;;;16.30;99.90;;;;;;4230821;28;20185;-88
2023/10/20 00:57:54;;;;;;;1.08;0.50;;;16.50;99.90;;;;;;4230581;28;20261;-88
2023/10/20 00:59:54;;;;;;;1.33;0.68;;;16.50;99.90;;;;;;4230886;28;20534;-89
2023/10/20 01:01:55;;;;;;;0.85;0.60;;;16.40;99.90;;;;;;4214111;28;20163;-88
2023/10/20 01:03:56;;;;;;;1.13;0.55;;;16.40;99.90;;;;;;4230828;28;20263;-88
2023/10/20 01:05:57;;;;;;;0.60;0.30;;;16.30;99.90;;;;;;4213818;28;20673;-88
2023/10/20 01:07:58;;;;;;;1.05;0.50;;;16.30;99.90;;;;;;4213624;28;20194;-88
2023/10/20 01:10:05;;;;;;;2.67;0.43;;;16.20;99.90;;;;;;4213742;28;20166;-88
2023/10/20 01:12:06;;;;;;;0.77;0.55;;;16.30;99.90;;;;;;4230933;28;20169;-88
2023/10/20 01:14:08;;;;;;;0.75;0.60;;;16.40;99.90;;;;;;4233659;28;20212;-89
2023/10/20 01:16:08;;;;;;;0.65;0.40;;;16.40;99.90;;;;;;4216822;28;20202;-89
2023/10/20 01:18:10;;;;;;;0.30;0.30;;;16.40;99.90;;;;;;4233794;28;20170;-89
2023/10/20 01:20:11;;;;;;;0.40;0.30;;;16.30;99.90;;;;;;4217145;28;20273;-89
2023/10/20 01:22:12;;;;;;;0.57;0.47;;;16.30;99.90;;;;;;4233524;28;20173;-89
2023/10/20 01:24:13;;;;;;;1.15;0.63;;;16.20;99.90;;;;;;4216791;28;20200;-88
2023/10/20 01:26:13;;;;;;;0.75;0.70;;;16.30;99.90;;;;;;4233605;28;20704;-89
2023/10/20 01:28:16;;;;;;;0.52;0.40;;;16.40;99.90;;;;;;4233563;28;20166;-88
2023/10/20 01:30:17;;;;;;;0.85;0.50;;;16.40;99.90;;;;;;4216619;28;20174;-89
2023/10/20 01:32:19;;;;;;;2.33;0.93;;;16.30;99.90;;;;;;4216556;28;20634;-89
2023/10/20 01:34:20;;;;;;;0.55;0.45;;;16.30;99.90;;;;;;4216739;28;20251;-91
2023/10/20 01:36:21;;;;;;;7.43;0.60;;;16.30;99.90;;;;;;4216608;28;20193;-88
2023/10/20 01:38:21;;;;;;;0.60;0.40;;;16.10;99.90;;;;;;4216539;28;20166;-89
2023/10/20 01:40:23;;;;;;;0.60;0.38;;;16.20;99.90;;;;;;4216631;28;20178;-90
2023/10/20 01:42:24;;;;;;;1.52;0.60;;;16.20;99.90;;;;;;4216459;28;20166;-89
2023/10/20 01:44:25;;;;;;;1.85;0.80;;;16.10;99.90;;;;;;4233355;28;20178;-89
2023/10/20 01:46:26;;;;;;;0.60;0.50;;;16.10;99.90;;;;;;4233018;28;20553;-89
2023/10/20 01:48:26;;;;;;;0.80;0.60;;;16.30;99.90;;;;;;4216306;28;20530;-89
2023/10/20 01:50:28;;;;;;;0.95;0.40;;;16.30;99.90;;;;;;4216545;28;20174;-89
2023/10/20 01:52:29;;;;;;;1.23;0.70;;;16.30;99.90;;;;;;4216110;28;20182;-90
2023/10/20 01:54:30;;;;;;;0.98;0.70;;;16.30;99.90;;;;;;4216320;28;20167;-90
2023/10/20 01:56:31;;;;;;;1.40;0.50;;;16.60;99.90;;;;;;4216146;28;20182;-89
2023/10/20 01:58:32;;;;;;;0.57;0.38;;;16.80;99.90;;;;;;4232829;28;20170;-89
2023/10/20 02:00:35;;;;;;;1.48;0.50;;;16.90;99.90;;;;;;4233124;28;20197;-89
2023/10/20 02:02:36;;;;;;;0.55;0.40;;;16.90;99.90;;;;;;4233099;28;20194;-90
2023/10/20 02:04:37;;;;;;;3.20;0.55;;;16.90;99.90;;;;;;4232894;28;20209;-88
2023/10/20 02:06:38;;;;;;;0.63;0.52;;;17.00;99.90;;;;;;4216116;28;20205;-89
2023/10/20 02:08:39;;;;;;;1.58;0.60;;;17.00;99.90;;;;;;4216009;28;20167;-90
2023/10/20 02:10:43;;;;;;;1.80;1.02;;;17.10;99.90;;;;;;4216049;28;20174;-90
2023/10/20 02:12:45;;;;;;;0.63;0.63;;;17.10;99.90;;;;;;4216024;28;20170;-89
2023/10/20 02:14:46;;;;;;;1.40;0.68;;;17.10;99.90;;;;;;4215913;28;20173;-88
2023/10/20 02:16:46;;;;;;;0.60;0.60;;;17.00;99.90;;;;;;4232765;28;20298;-88
2023/10/20 02:18:47;;;;;;;1.15;0.77;;;17.00;99.90;;;;;;4232929;28;20161;-89
2023/10/20 02:21:03;;;;;;;2.97;0.68;;;17.10;99.90;;;;;;4232868;28;20178;-88
2023/10/20 02:23:04;;;;;;;0.52;0.40;;;17.10;99.90;;;;;;4233104;28;20566;-90
2023/10/20 02:25:05;;;;;;;0.55;0.43;;;17.00;99.90;;;;;;4232834;28;20303;-89
2023/10/20 02:27:08;;;;;;;0.90;0.65;;;16.80;99.90;;;;;;4232750;28;20552;-89
2023/10/20 02:29:09;;;;;;;1.13;0.90;;;16.60;99.90;;;;;;4216081;28;20216;-89
2023/10/20 02:31:17;;;;;;;0.93;0.60;;;16.80;99.90;;;;;;4232664;28;20641;-89
2023/10/20 02:33:18;;;;;;;0.80;0.55;;;16.80;99.90;;;;;;4232527;28;20169;-90
2023/10/20 02:35:19;;;;;;;0.80;0.73;;;16.70;99.90;;;;;;4215633;28;20171;-89
2023/10/20 02:37:20;;;;;;;3.28;0.47;;;16.60;99.90;;;;;;4215490;28;20287;-89
2023/10/20 02:39:20;;;;;;;0.80;0.68;;;16.40;99.90;;;;;;4215529;28;20261;-89
2023/10/20 02:41:21;;;;;;;3.05;0.80;;;16.40;99.90;;;;;;4215653;28;20166;-89
2023/10/20 02:43:23;;;;;;;0.88;0.57;;;16.40;99.90;;;;;;4232309;28;20253;-89
2023/10/20 02:45:24;;;;;;;2.78;1.23;;;16.40;99.90;;;;;;4232120;28;20209;-89
2023/10/20 02:47:25;;;;;;;1.00;0.65;;;16.50;99.90;;;;;;4231968;28;20273;-89
2023/10/20 02:49:26;;;;;;;1.30;0.80;;;16.60;99.90;;;;;;4215115;28;20170;-88
2023/10/20 02:51:26;;;;;;;1.27;0.63;;;16.60;99.90;;;;;;4215373;28;20173;-89
2023/10/20 02:53:27;;;;;;;1.50;0.75;;;16.90;99.90;;;;;;4215832;28;20197;-89
2023/10/20 02:55:28;;;;;;;3.92;1.00;;;16.90;99.90;;;;;;4215243;28;20170;-89
2023/10/20 02:57:29;;;;;;;1.50;0.98;;;16.80;99.90;;;;;;4215223;28;20682;-90
2023/10/20 02:59:30;;;;;;;1.05;0.85;;;17.00;99.90;;;;;;4215399;28;20684;-88
2023/10/20 03:01:31;;;;;;;0.93;0.65;;;16.90;99.90;;;;;;4214987;28;20170;-90
2023/10/20 03:03:32;;;;;;;1.25;0.60;;;16.90;99.90;;;;;;4215178;28;20166;-90
2023/10/20 03:05:33;;;;;;;1.05;0.68;;;16.90;99.90;;;;;;4214894;28;20212;-90
2023/10/20 03:07:34;;;;;;;1.10;0.80;;;17.00;99.90;;;;;;4214903;28;20213;-88
2023/10/20 03:09:36;;;;;;;1.08;0.60;;;16.70;99.90;;;;;;4215211;28;20500;-90
2023/10/20 03:11:36;;;;;;;1.20;0.68;;;16.60;99.90;;;;;;4214817;28;20261;-90
2023/10/20 03:13:37;;;;;;;2.47;0.90;;;16.70;99.90;;;;;;4214780;28;20197;-90
2023/10/20 03:15:40;;;;;;;1.85;0.98;;;16.60;99.90;;;;;;4214402;28;20606;-90
2023/10/20 03:17:41;;;;;;;0.95;0.70;;;16.70;99.90;;;;;;4231420;28;20205;-90
2023/10/20 03:19:44;;;;;;;0.80;0.52;;;16.70;99.90;;;;;;4214709;28;20170;-89
2023/10/20 03:21:47;;;;;;;0.68;0.60;;;16.80;99.90;;;;;;4214987;28;20657;-90
2023/10/20 03:23:48;;;;;;;1.98;0.68;;;16.90;99.90;;;;;;4214781;28;20646;-89
2023/10/20 03:25:49;;;;;;;3.72;0.80;;;16.60;99.90;;;;;;4231633;28;20216;-91
2023/10/20 03:27:50;;;;;;;0.55;0.55;;;16.60;99.90;;;;;;4231546;28;20227;-90
2023/10/20 03:29:51;;;;;;;1.30;0.80;;;16.60;99.90;;;;;;4231785;28;20181;-90
2023/10/20 03:31:53;;;;;;;1.30;0.82;;;16.40;99.90;;;;;;4214969;28;20246;-90
2023/10/20 03:33:54;;;;;;;2.42;0.80;;;16.60;99.90;;;;;;4214981;28;20181;-89
2023/10/20 03:36:05;;;;;;;0.80;0.60;;;16.50;99.90;;;;;;4214503;28;20567;-89
2023/10/20 03:38:06;;;;;;;0.85;0.70;;;16.60;99.90;;;;;;4214691;28;20176;-88
2023/10/20 03:40:13;;;;;;;0.93;0.80;;;16.80;99.90;;;;;;4231691;28;20557;-89
2023/10/20 03:42:14;;;;;;;0.50;0.47;;;16.60;99.90;;;;;;4231241;28;20201;-90
2023/10/20 03:44:18;;;;;;;1.33;0.95;;;16.60;99.90;;;;;;4214890;28;20170;-90
2023/10/20 03:46:20;;;;;;;1.48;0.70;;;16.60;99.90;;;;;;4214394;28;20221;-89
2023/10/20 03:48:23;;;;;;;0.77;0.63;;;16.70;99.90;;;;;;4231183;28;20157;-90
2023/10/20 03:50:24;;;;;;;2.95;0.90;;;16.60;99.90;;;;;;4214498;28;20243;-89
2023/10/20 03:52:28;;;;;;;1.95;0.80;;;16.70;99.90;;;;;;4214552;28;20630;-89
2023/10/20 03:54:31;;;;;;;1.10;0.80;;;16.90;99.90;;;;;;4214571;28;20178;-89
2023/10/20 03:56:35;;;;;;;3.53;1.13;;;16.90;99.90;;;;;;4214696;28;20612;-90
2023/10/20 03:58:36;;;;;;;1.33;1.02;;;16.80;99.90;;;;;;4214478;28;20170;-89
2023/10/20 04:00:41;;;;;;;1.15;0.90;;;16.80;99.90;;;;;;4214381;28;20283;-89
2023/10/20 04:02:42;;;;;;;0.82;0.80;;;16.80;99.90;;;;;;4231280;28;20181;-89
2023/10/20 04:04:43;;;;;;;4.13;1.80;;;16.90;99.90;;;;;;4231302;28;20539;-91
2023/10/20 04:06:45;;;;;;;4.65;1.20;;;16.80;99.90;;;;;;4231198;28;20236;-91
2023/10/20 04:08:46;;;;;;;1.80;1.50;;;16.80;99.90;;;;;;4214336;28;20174;-89
2023/10/20 04:10:46;;;;;;;1.77;1.10;;;16.90;99.90;;;;;;4214475;28;20212;-89
2023/10/20 04:12:49;;;;;;;1.52;1.02;;;16.90;99.90;;;;;;4231286;28;20212;-90
2023/10/20 04:14:53;;;;;;;2.30;1.05;;;16.50;99.90;;;;;;4231399;28;20176;-91
2023/10/20 04:16:54;;;;;;;2.20;1.60;;;16.60;99.90;;;;;;4231226;28;20236;-90
2023/10/20 04:18:55;;;;;;;1.17;0.88;;;16.60;99.90;;;;;;4231143;28;20169;-90
2023/10/20 04:20:57;;;;;;;2.30;1.42;;;16.70;99.90;;;;;;4214575;28;20170;-89
2023/10/20 04:22:58;;;;;;;2.95;1.60;;;16.70;99.90;;;;;;4214406;28;20178;-89
2023/10/20 04:24:59;;;;;;;1.42;1.08;;;16.90;99.90;;;;;;4214452;28;20186;-89
2023/10/20 04:27:00;;;;;;;2.28;1.60;;;16.80;99.90;;;;;;4230914;28;20197;-89
2023/10/20 04:43:20;;;;;;;2.97;1.95;;;16.30;99.90;;;;;;4231119;28;20169;-89
2023/10/20 04:54:07;;;;;;;3.13;1.88;;;16.20;99.90;;;;;;4234009;28;20273;-90
2023/10/20 04:56:35;;;;;;;4.68;2.30;;;16.20;99.90;;;;;;4217204;28;20170;-89
2023/10/20 05:00:42;;;;;;;3.42;2.47;;;16.20;99.90;;;;;;4234293;28;20180;-91
2023/10/20 05:03:11;;;;;;;7.60;1.63;;;16.20;99.90;;;;;;4217278;28;20171;-90
2023/10/20 05:05:11;;;;;;;2.92;1.88;;;16.10;99.90;;;;;;4233765;28;20669;-91
2023/10/20 05:07:12;;;;;;;3.90;2.47;;;16.10;99.90;;;;;;4217125;28;20209;-91
2023/10/20 05:09:14;;;;;;;4.90;2.50;;;16.20;99.90;;;;;;4217137;28;20166;-92
2023/10/20 05:11:15;;;;;;;5.07;2.28;;;16.20;99.90;;;;;;4216879;28;20228;-90
2023/10/20 05:13:16;;;;;;;3.83;2.40;;;16.10;99.90;;;;;;4216906;28;20166;-91
2023/10/20 05:15:17;;;;;;;3.85;2.10;;;16.10;99.90;;;;;;4216914;28;20178;-92
2023/10/20 05:17:20;;;;;;;3.60;2.25;;;16.30;99.90;;;;;;4233818;28;20181;-92
2023/10/20 05:19:21;;;;;;;4.22;2.25;;;16.30;99.90;;;;;;4216895;28;20166;-92
2023/10/20 05:21:22;;;;;;;3.83;1.98;;;16.30;99.90;;;;;;4233659;28;20165;-91
2023/10/20 05:23:23;;;;;;;3.22;2.22;;;16.40;99.90;;;;;;4216656;28;20260;-91
2023/10/20 05:25:24;;;;;;;5.18;2.70;;;16.40;99.90;;;;;;4233582;28;20291;-91
2023/10/20 05:27:25;;;;;;;4.65;2.35;;;16.40;99.90;;;;;;4216587;28;20222;-91
2023/10/20 05:29:26;;;;;;;8.57;2.08;;;16.40;99.90;;;;;;4233570;28;20279;-91
2023/10/20 05:31:29;;;;;;;3.88;2.47;;;16.20;99.90;;;;;;4233619;28;20177;-92
2023/10/20 05:33:33;;;;;;;4.43;2.40;;;16.30;99.90;;;;;;4234175;28;20590;-93
2023/10/20 05:35:34;;;;;;;3.53;2.20;;;16.30;99.90;;;;;;4217332;28;20174;-95
2023/10/20 05:37:38;;;;;;;4.35;2.33;;;16.30;99.90;;;;;;4217325;28;20193;-94
2023/10/20 05:40:06;;;;;;;4.53;2.38;;;16.30;99.90;;;;;;4218521;28;20166;-95
2023/10/20 05:42:12;;;;;;;3.97;2.20;;;16.30;99.90;;;;;;4235152;28;20173;-95
2023/10/20 05:44:21;;;;;;;4.88;2.10;;;16.50;99.90;;;;;;4235043;28;20174;-95
2023/10/20 05:46:22;;;;;;;3.70;2.35;;;16.60;99.90;;;;;;4218062;28;20681;-95
2023/10/20 05:48:24;;;;;;;4.80;2.72;;;16.50;99.90;;;;;;4217928;28;20175;-95
2023/10/20 05:50:34;;;;;;;2.83;1.98;;;16.50;99.90;;;;;;4217010;28;20299;-94
2023/10/20 05:52:43;;;;;;;3.90;2.63;;;16.50;99.90;;;;;;4216695;28;20169;-95
2023/10/20 05:54:47;;;;;;;3.25;2.50;;;16.50;99.90;;;;;;4217772;28;20661;-94
2023/10/20 05:56:51;;;;;;;4.03;2.55;;;16.30;99.90;;;;;;4218930;28;20185;-95
2023/10/20 05:59:30;;;;;;;5.10;2.50;;;16.00;99.90;;;;;;4217610;28;20650;-93
2023/10/20 06:01:58;;;;;;;3.20;2.30;;;16.00;99.90;;;;;;4236307;28;20169;-93
2023/10/20 06:04:13;;;;;;;3.72;2.00;;;16.00;99.90;;;;;;4217256;28;20170;-95
2023/10/20 06:06:22;;;;;;;3.42;2.35;;;16.10;99.90;;;;;;4218401;28;20676;-94
2023/10/20 06:08:49;;;;;;;4.43;2.78;;;16.10;99.90;;;;;;4236177;28;20181;-93
2023/10/20 06:10:58;;;;;;;6.35;2.70;;;16.00;99.90;;;;;;4205978;28;20678;-95
2023/10/20 06:12:59;;;;;;;3.50;2.10;;;16.10;99.90;;;;;;4217406;28;20170;-95
2023/10/20 06:15:03;;;;;;;5.22;2.72;;;16.10;99.90;;;;;;4217448;28;20190;-93
2023/10/20 06:17:17;;;;;;;3.35;2.10;;;16.10;99.90;;;;;;4222597;28;20194;-95
2023/10/20 06:19:28;;;;;;;3.58;2.13;;;16.00;99.90;;;;;;4238878;28;20180;-95
2023/10/20 06:21:32;;;;;;;3.95;2.25;;;15.90;99.90;;;;;;4235888;28;20164;-94
2023/10/20 06:23:36;;;;;;;3.85;2.35;;;16.20;99.90;;;;;;4218563;28;20243;-95
2023/10/20 06:26:10;;;;;;;3.83;2.30;;;16.30;99.90;;;;;;4240119;28;20193;-95
2023/10/20 06:28:15;;;;;;;3.60;1.92;;;16.10;99.90;;;;;;4226607;28;20154;-96
2023/10/20 06:30:27;;;;;;;3.58;1.50;;;15.90;99.90;;;;;;4224526;28;20177;-94
2023/10/20 06:32:42;;;;;;;3.28;1.73;;;15.80;99.90;;;;;;4219859;28;20170;-94
2023/10/20 06:34:43;;;;;;;2.33;1.50;;;16.10;99.90;;;;;;4217528;28;20166;-94
2023/10/20 06:36:48;;;;;;;5.45;2.17;;;16.40;99.90;;;;;;4217225;28;20221;-94
2023/10/20 06:38:51;;;;;;;4.35;1.98;;;16.40;99.90;;;;;;4220022;28;20622;-94
2023/10/20 06:40:52;;;;;;;2.20;1.55;;;16.20;99.90;;;;;;4220738;28;20263;-95
2023/10/20 06:43:06;;;;;;;3.00;1.58;;;16.00;99.90;;;;;;4220821;28;20178;-95
2023/10/20 06:45:10;;;;;;;1.98;1.38;;;16.10;99.90;;;;;;4235629;28;20224;-95
2023/10/20 06:47:34;;;;;;;;;;;;;;;;;;;;;
2023/10/20 06:49:42;;;;;;;1.10;0.90;;;16.00;99.90;;;;;;4237156;28;20208;-94
2023/10/20 06:51:46;;;;;;;3.10;1.40;;;16.10;99.90;;;;;;4221765;28;20166;-94
2023/10/20 06:53:49;;;;;;;0.95;0.85;;;16.10;99.90;;;;;;4218249;28;20274;-94
2023/10/20 06:55:51;;;;;;;1.38;0.77;;;16.30;99.90;;;;;;4217367;28;20573;-93
2023/10/20 06:57:53;;;;;;;1.45;1.35;;;16.10;99.90;;;;;;4218441;28;20204;-94
2023/10/20 06:59:54;;;;;;;2.50;1.20;;;16.00;99.90;;;;;;4219689;28;20263;-94
2023/10/20 07:02:00;;;;;;;1.33;1.02;;;15.90;99.90;;;;;;4217873;28;20306;-94
2023/10/20 07:04:06;;;;;;;2.72;1.20;;;15.90;99.90;;;;;;4219019;28;20631;-95
2023/10/20 07:06:09;;;;;;;1.55;0.95;;;15.80;99.90;;;;;;4237665;28;20215;-93
2023/10/20 07:08:17;;;;;;;1.52;0.90;;;16.00;99.90;;;;;;4217774;28;20173;-94
2023/10/20 07:10:21;;;;;;;2.05;1.10;;;15.90;99.90;;;;;;4215982;28;20630;-93
2023/10/20 07:12:27;;;;;;;3.03;0.98;;;15.90;99.90;;;;;;4217753;28;20237;-93
2023/10/20 07:14:28;;;;;;;2.45;1.27;;;15.90;99.90;;;;;;4235745;28;20264;-94
2023/10/20 07:16:29;;;;;;;1.40;0.70;;;15.90;99.90;;;;;;4233313;28;20192;-93
2023/10/20 07:18:30;;;;;;;1.70;1.15;;;15.80;99.90;;;;;;4236433;28;20580;-94
2023/10/20 07:20:33;;;;;;;1.67;0.95;;;15.90;99.90;;;;;;4216517;28;20231;-93
2023/10/20 07:22:33;;;;;;;3.47;0.95;;;15.90;99.90;;;;;;4219529;28;20600;-93
2023/10/20 07:24:34;;;;;;;1.83;0.95;;;16.10;99.90;;;;;;4232617;28;20170;-94
2023/10/20 07:26:36;;;;;;;0.82;0.82;;;16.00;99.90;;;;;;4215815;28;20221;-94
2023/10/20 07:28:39;;;;;;;2.00;1.27;;;15.90;99.90;;;;;;4219901;28;20526;-93
2023/10/20 07:30:43;;;;;;;1.67;1.02;;;15.90;99.90;;;;;;4219217;28;20180;-95
2023/10/20 07:32:52;;;;;;;1.65;1.10;;;16.10;99.90;;;;;;4216500;28;20167;-95
2023/10/20 07:35:03;;;;;;;0.80;0.65;;;16.10;99.90;;;;;;4237641;28;20265;-95
2023/10/20 07:37:30;;;;;;;1.60;0.85;;;16.10;99.90;;;;;;4235785;28;20345;-94
2023/10/20 07:39:31;;;;;;;0.95;0.70;;;16.10;99.90;;;;;;4218525;28;20184;-93
2023/10/20 07:41:31;;;;;;;0.82;0.60;;;16.10;99.90;;;;;;4234646;28;20181;-94
2023/10/20 07:43:33;;;;;;;1.98;0.80;;;16.10;99.90;;;;;;4234128;28;20646;-94
2023/10/20 07:45:45;;;;;;;1.15;0.63;;;16.10;99.90;;;;;;4216823;28;20214;-93
2023/10/20 07:47:46;;;;;;;1.40;0.85;;;16.00;99.90;;;;;;4217632;28;20213;-94
2023/10/20 07:49:57;;;;;;;0.98;0.70;;;16.10;99.90;;;;;;4216101;28;20748;-93
2023/10/20 07:52:00;;;;;;;2.05;0.90;;;16.10;99.90;;;;;;4233486;28;20234;-94
2023/10/20 07:54:04;;;;;;;1.27;0.77;;;16.00;99.90;;;;;;4236870;28;20260;-95
2023/10/20 07:56:10;;;;;;;1.20;0.85;;;16.00;99.90;;;;;;4239070;28;20168;-94
2023/10/20 07:58:16;;;;;;;1.00;0.77;;;16.00;99.90;;;;;;4237272;28;20274;-94
2023/10/20 08:00:23;;;;;;;0.85;0.60;;;16.00;99.90;;;;;;4233880;28;20177;-95
2023/10/20 08:02:29;;;;;;;1.92;0.98;;;16.00;99.90;;;;;;4235523;28;20247;-94
2023/10/20 08:04:47;;;;;;;0.85;0.80;;;16.10;99.90;;;;;;4219425;28;20634;-96
2023/10/20 08:07:09;;;;;;;3.42;1.35;;;16.20;99.90;;;;;;4224489;28;20217;-95
2023/10/20 08:09:31;;;;;;;2.50;0.90;;;16.20;99.90;;;;;;4226279;28;20219;-95
2023/10/20 08:11:35;;;;;;;0.93;0.80;;;16.20;99.90;;;;;;4237989;28;20179;-93
2023/10/20 08:13:38;;;;;;;1.50;1.00;;;16.20;99.90;;;;;;4237934;28;20702;-95
2023/10/20 08:16:36;;;;;;;1.70;1.08;;;16.20;99.90;;;;;;4221653;28;20169;-95
2023/10/20 08:18:57;;;;;;;1.10;0.80;;;16.20;99.90;;;;;;4235652;28;20177;-96
2023/10/20 08:21:12;;;;;;;1.27;0.75;;;16.10;99.90;;;;;;4234834;28;20174;-93
2023/10/20 08:23:24;;;;;;;1.98;0.90;;;16.10;99.90;;;;;;4237808;28;20180;-94
2023/10/20 08:25:29;;;;;;;2.35;0.98;;;16.10;99.90;;;;;;4237267;28;20303;-94
2023/10/20 08:27:30;;;;;;;1.05;0.77;;;16.20;99.90;;;;;;4220492;28;20275;-94
2023/10/20 08:29:35;;;;;;;2.45;0.90;;;16.30;99.90;;;;;;4220706;28;20201;-93
2023/10/20 08:31:35;;;;;;;0.80;0.60;;;16.30;99.90;;;;;;4218953;28;20174;-94
2023/10/20 08:33:36;;;;;;;0.95;0.77;;;16.20;99.90;;;;;;4220085;28;20170;-94
2023/10/20 08:35:40;;;;;;;1.42;1.00;;;16.30;99.90;;;;;;4221472;28;20216;-95
2023/10/20 08:37:41;;;;;;;0.90;0.75;;;16.30;99.90;;;;;;4227484;28;20693;-95
2023/10/20 08:39:57;;;;;;;2.53;1.10;;;16.30;99.90;;;;;;4249785;28;20190;-94
2023/10/20 08:42:02;;;;;;;1.55;0.75;;;16.30;99.90;;;;;;4237038;28;20172;-94
2023/10/20 08:44:03;;;;;;;1.80;0.60;;;16.50;99.90;;;;;;4222427;28;20175;-93
2023/10/20 08:46:23;;;;;;;2.05;0.60;;;16.60;99.90;;;;;;4219512;28;20582;-92
2023/10/20 08:48:53;;;;;;;0.47;0.47;;;16.60;99.90;;;;;;4220499;28;20170;-95
2023/10/20 08:50:58;;;;;;;0.50;0.50;;;16.50;99.90;;;;;;4221860;28;20175;-96
2023/10/20 08:53:39;;;;;;;2.10;0.80;;;16.40;99.90;;;;;;4217708;28;20174;-94
2023/10/20 08:56:08;;;;;;;0.63;0.63;;;16.40;99.90;;;;;;4230792;28;20185;-93
2023/10/20 08:58:22;;;;;;;0.80;0.57;;;16.70;99.90;;;;;;4235716;28;20168;-96
2023/10/20 09:01:06;;;;;;;0.88;0.70;;;16.80;99.90;;;;;;4218870;28;20190;-94
2023/10/20 09:03:10;;;;;;;2.08;0.40;;;16.70;99.90;;;;;;4224669;28;20216;-96
2023/10/20 09:05:28;;;;;;;2.42;0.60;;;16.90;99.90;;;;;;4221790;28;20206;-94
2023/10/20 09:07:56;;;;;;;2.00;0.65;;;16.90;99.90;;;;;;4240679;28;20227;-95
2023/10/20 09:10:32;;;;;;;0.60;0.40;;;16.80;99.90;;;;;;4226060;28;20177;-94
2023/10/20 09:12:47;;;;;;;0.63;0.30;;;16.60;99.90;;;;;;4241242;28;20174;-95
2023/10/20 09:15:30;;;;;;;;;;;;;;;;;;;;;
2023/10/20 09:20:24;;;;;;;1.15;0.73;;;16.50;99.90;;;;;;4211908;22;20220;-94
2023/10/20 09:23:19;;;;;;;1.10;0.40;;;16.50;99.90;;;;;;4153554;28;20184;-94
2023/10/20 09:26:15;;;;;;;2.58;0.70;;;16.60;99.90;;;;;;4155113;28;20688;-95
2023/10/20 09:28:32;;;;;;;0.40;0.30;;;16.60;99.90;;;;;;4153642;28;20161;-94
2023/10/20 09:31:09;;;;;;;0.45;0.38;;;16.60;99.90;;;;;;4137013;28;20280;-94
2023/10/20 09:33:36;;;;;;;;;;;;;;;;;;;;;
2023/10/20 09:36:38;;;;;;;;;;;;;;;;;;;;;
2023/10/20 09:39:27;;;;;;;0.50;0.40;;;16.80;99.90;;;;;;4118797;28;20193;-94
2023/10/20 09:42:34;;;;;;;0.63;0.40;;;16.80;99.90;;;;;;4071140;29;20374;-94
2023/10/20 09:45:02;;;;;;;;;;;;;;;;;;;;;
2023/10/20 09:47:52;;;;;;;;;;;;;;;;;;;;;
2023/10/20 09:50:35;;;;;;;;;;;;;;;;;;;;;
2023/10/20 09:53:54;;;;;;;0.43;0.43;;;16.80;99.90;;;;;;4157645;28;20699;-95
2023/10/20 09:56:26;;;;;;;;;;;;;;;;;;;;;
2023/10/20 10:01:13;;;;;;;1.42;0.40;;;16.50;99.90;;;;;;4124225;28;20243;-94
2023/10/20 10:03:37;;;;;;;0.40;0.20;;;16.40;99.90;;;;;;4135069;28;20617;-94
2023/10/20 10:05:53;;;;;;;0.30;0.20;;;16.40;99.90;;;;;;4134446;28;20204;-94
2023/10/20 10:08:10;;;;;;;0.30;0.20;;;16.50;99.90;;;;;;4150362;28;20193;-93
2023/10/20 10:10:19;;;;;;;0.20;0.10;;;16.50;99.90;;;;;;4150066;28;20177;-92
2023/10/20 10:12:23;;;;;;;1.20;0.63;;;16.50;99.90;;;;;;4133785;28;20180;-94
2023/10/20 10:14:25;;;;;;;0.10;0.10;;;16.60;99.90;;;;;;4133782;28;20192;-93
2023/10/20 10:16:30;;;;;;;0.57;0.30;;;16.50;99.90;;;;;;4149901;28;20195;-93
2023/10/20 10:18:55;;;;;;;1.55;0.40;;;16.60;99.90;;;;;;4150181;28;20169;-93
2023/10/20 10:21:06;;;;;;;1.55;0.20;;;16.60;99.90;;;;;;4133928;28;20192;-93
2023/10/20 10:23:16;;;;;;;0.32;0.15;;;16.70;99.90;;;;;;4133550;28;20239;-95
2023/10/20 10:25:42;;;;;;;2.50;0.38;;;16.70;99.90;;;;;;4150097;28;20208;-93
2023/10/20 10:27:52;;;;;;;0.20;0.10;;;16.60;99.90;;;;;;4133230;28;20225;-94
2023/10/20 10:30:09;;;;;;;0.20;0.10;;;16.80;99.90;;;;;;4149767;28;20169;-95
2023/10/20 10:32:31;;;;;;;0.20;0.10;;;16.80;99.90;;;;;;4149648;28;20172;-95
2023/10/20 10:34:48;;;;;;;0.20;0.20;;;16.90;99.90;;;;;;4133586;28;20174;-93
2023/10/20 10:36:49;;;;;;;0.28;0.20;;;16.90;99.90;;;;;;4133578;28;20229;-95
2023/10/20 10:38:52;;;;;;;1.20;0.40;;;16.90;99.90;;;;;;4149847;28;20204;-94
2023/10/20 10:40:56;;;;;;;0.45;0.20;;;16.80;99.90;;;;;;4133745;28;20654;-93
2023/10/20 10:42:57;;;;;;;0.20;0.10;;;16.60;99.90;;;;;;4133053;28;20268;-93
2023/10/20 10:45:17;;;;;;;0.52;0.20;;;16.70;99.90;;;;;;4133556;28;20295;-94
2023/10/20 10:47:23;;;;;;;0.15;0.05;;;16.70;99.90;;;;;;4133172;28;20640;-96
2023/10/20 10:49:33;;;;;;;0.65;0.13;;;16.70;99.90;;;;;;4134740;28;20185;-94
2023/10/20 10:51:46;;;;;;;0.20;0.10;;;16.70;99.90;;;;;;4137440;28;20177;-96
2023/10/20 10:53:47;;;;;;;0.20;0.10;;;16.60;99.90;;;;;;4149773;28;20176;-94
2023/10/20 10:55:48;;;;;;;0.20;0.17;;;16.60;99.90;;;;;;4150804;28;20259;-96
2023/10/20 10:57:54;;;;;;;0.20;0.20;;;16.40;99.90;;;;;;4150311;28;20201;-94
2023/10/20 11:00:06;;;;;;;0.35;0.22;;;16.40;99.90;;;;;;4150072;28;20176;-95
2023/10/20 11:02:20;;;;;;;0.22;0.17;;;16.60;99.90;;;;;;4153333;28;20192;-95
2023/10/20 11:04:29;;;;;;;0.40;0.20;;;16.60;99.90;;;;;;4141937;28;20154;-95
2023/10/20 11:06:42;;;;;;;0.20;0.20;;;16.60;99.90;;;;;;4154033;28;20272;-94
2023/10/20 11:08:44;;;;;;;0.30;0.20;;;16.60;99.90;;;;;;4136191;28;20173;-94
2023/10/20 11:10:54;;;;;;;0.52;0.30;;;16.40;99.90;;;;;;4149747;28;20645;-94
2023/10/20 11:13:01;;;;;;;0.30;0.30;;;16.30;99.90;;;;;;4132584;28;20173;-93
2023/10/20 11:15:03;;;;;;;0.77;0.35;;;16.30;99.90;;;;;;4132677;28;20573;-95
2023/10/20 11:17:05;;;;;;;1.17;0.20;;;16.30;99.90;;;;;;4132902;28;20240;-94
2023/10/20 11:19:13;;;;;;;1.65;0.30;;;16.40;99.90;;;;;;4133226;28;20629;-95
2023/10/20 11:21:16;;;;;;;0.52;0.30;;;16.40;99.90;;;;;;4133147;28;20216;-95
2023/10/20 11:23:32;;;;;;;0.60;0.30;;;16.30;99.90;;;;;;4149596;28;20177;-94
2023/10/20 11:25:36;;;;;;;0.50;0.30;;;16.30;99.90;;;;;;4133075;28;20213;-96
2023/10/20 11:27:42;;;;;;;0.63;0.50;;;16.30;99.90;;;;;;4132833;28;20665;-94
2023/10/20 11:29:49;;;;;;;0.70;0.55;;;16.30;99.90;;;;;;4133200;28;20177;-94
2023/10/20 11:31:50;;;;;;;1.52;0.98;;;16.30;99.90;;;;;;4133025;28;20173;-94
2023/10/20 11:33:51;;;;;;;0.98;0.75;;;16.40;99.90;;;;;;4132949;28;20232;-96
2023/10/20 11:35:53;;;;;;;3.33;0.80;;;16.40;99.90;;;;;;4149091;28;20173;-94
2023/10/20 11:37:55;;;;;;;2.60;1.25;;;16.40;99.90;;;;;;4148733;28;20193;-95
2023/10/20 11:40:02;;;;;;;2.08;1.10;;;16.20;99.90;;;;;;4132376;28;20228;-95
2023/10/20 11:42:07;;;;;;;3.50;1.15;;;16.40;99.90;;;;;;4148801;28;20231;-94